createdAt,value
2017-09-30T00:01:08.009Z,1016.79
2017-09-30T00:02:17.941Z,1016.74
2017-09-30T00:03:27.240Z,1016.72
2017-09-30T00:04:37.206Z,1016.68
2017-09-30T00:05:46.840Z,1016.71
2017-09-30T00:06:57.105Z,1016.71
2017-09-30T00:08:07.038Z,1016.68
2017-09-30T00:09:16.984Z,1016.71
2017-09-30T00:10:26.843Z,1016.71
2017-09-30T00:11:36.808Z,1016.66
2017-09-30T00:12:46.447Z,1016.65
2017-09-30T00:13:56.383Z,1016.66
2017-09-30T00:15:06.010Z,1016.64
2017-09-30T00:16:16.307Z,1016.68
2017-09-30T00:17:25.917Z,1016.66
2017-09-30T00:18:35.855Z,1016.69
2017-09-30T00:19:45.473Z,1016.74
2017-09-30T00:20:55.084Z,1016.65
2017-09-30T00:22:05.295Z,1016.73
2017-09-30T00:23:14.920Z,1016.7
2017-09-30T00:24:24.235Z,1016.75
2017-09-30T00:25:34.490Z,1016.74
2017-09-30T00:26:44.757Z,1016.74
2017-09-30T00:27:54.039Z,1016.73
2017-09-30T00:29:03.659Z,1016.72
2017-09-30T00:30:13.599Z,1016.72
2017-09-30T00:31:23.226Z,1016.71
2017-09-30T00:32:33.177Z,1016.72
2017-09-30T00:33:42.723Z,1016.76
2017-09-30T00:34:52.658Z,1016.77
2017-09-30T00:36:02.278Z,1016.71
2017-09-30T00:37:11.898Z,1016.65
2017-09-30T00:38:21.513Z,1016.62
2017-09-30T00:39:31.804Z,1016.62
2017-09-30T00:40:42.046Z,1016.62
2017-09-30T00:41:52.297Z,1016.62
2017-09-30T00:43:01.607Z,1016.61
2017-09-30T00:44:11.850Z,1016.59
2017-09-30T00:45:22.030Z,1016.64
2017-09-30T00:46:31.657Z,1016.65
2017-09-30T00:47:41.589Z,1016.63
2017-09-30T00:48:51.865Z,1016.7
2017-09-30T00:50:01.489Z,1016.66
2017-09-30T00:51:11.987Z,1016.63
2017-09-30T00:52:21.919Z,1016.67
2017-09-30T00:53:32.094Z,1016.64
2017-09-30T00:54:42.021Z,1016.6
2017-09-30T00:55:51.646Z,1016.55
2017-09-30T00:57:01.831Z,1016.59
2017-09-30T00:58:11.770Z,1016.54
2017-09-30T00:59:21.708Z,1016.56
2017-09-30T01:00:31.326Z,1016.54
2017-09-30T01:01:41.261Z,1016.52
2017-09-30T01:02:50.922Z,1016.48
2017-09-30T01:04:01.478Z,1016.54
2017-09-30T01:05:11.413Z,1016.51
2017-09-30T01:06:21.354Z,1016.49
2017-09-30T01:07:30.960Z,1016.46
2017-09-30T01:08:41.464Z,1016.46
2017-09-30T01:09:51.730Z,1016.42
2017-09-30T01:11:01.664Z,1016.4
2017-09-30T01:12:11.273Z,1016.45
2017-09-30T01:13:21.230Z,1016.44
2017-09-30T01:14:31.107Z,1016.43
2017-09-30T01:15:40.728Z,1016.4
2017-09-30T01:16:50.652Z,1016.37
2017-09-30T01:18:00.904Z,1016.35
2017-09-30T01:19:10.836Z,1016.32
2017-09-30T01:20:20.494Z,1016.32
2017-09-30T01:21:30.763Z,1016.33
2017-09-30T01:22:40.697Z,1016.32
2017-09-30T01:23:49.997Z,1016.33
2017-09-30T01:25:00.242Z,1016.33
2017-09-30T01:26:10.814Z,1016.35
2017-09-30T01:27:20.737Z,1016.4
2017-09-30T01:28:30.682Z,1016.43
2017-09-30T01:29:40.937Z,1016.38
2017-09-30T01:30:51.201Z,1016.46
2017-09-30T01:32:01.728Z,1016.39
2017-09-30T01:33:11.345Z,1016.37
2017-09-30T01:34:21.588Z,1016.36
2017-09-30T01:35:31.835Z,1016.32
2017-09-30T01:36:42.080Z,1016.31
2017-09-30T01:37:52.677Z,1016.3
2017-09-30T01:39:02.602Z,1016.29
2017-09-30T01:40:12.550Z,1016.29
2017-09-30T01:41:22.796Z,1016.29
2017-09-30T01:42:33.049Z,1016.3
2017-09-30T01:43:43.234Z,1016.3
2017-09-30T01:44:53.180Z,1016.25
2017-09-30T01:46:03.122Z,1016.27
2017-09-30T01:47:13.048Z,1016.26
2017-09-30T01:48:23.298Z,1016.25
2017-09-30T01:49:33.526Z,1016.27
2017-09-30T01:50:43.778Z,1016.28
2017-09-30T01:51:53.717Z,1016.27
2017-09-30T01:53:03.960Z,1016.23
2017-09-30T01:54:13.904Z,1016.26
2017-09-30T01:55:24.518Z,1016.25
2017-09-30T01:56:34.771Z,1016.26
2017-09-30T01:57:44.702Z,1016.24
2017-09-30T01:58:54.664Z,1016.22
2017-09-30T02:00:04.904Z,1016.23
2017-09-30T02:01:15.143Z,1016.24
2017-09-30T02:02:25.386Z,1016.23
2017-09-30T02:03:35.326Z,1016.21
2017-09-30T02:04:45.584Z,1016.18
2017-09-30T02:05:55.838Z,1016.19
2017-09-30T02:07:05.718Z,1016.15
2017-09-30T02:08:15.976Z,1016.13
2017-09-30T02:09:26.214Z,1016.14
2017-09-30T02:10:36.449Z,1016.1
2017-09-30T02:11:46.704Z,1016.08
2017-09-30T02:12:57.250Z,1016.07
2017-09-30T02:14:07.525Z,1016.08
2017-09-30T02:15:17.456Z,1016.04
2017-09-30T02:16:27.392Z,1016.08
2017-09-30T02:17:37.323Z,1016.04
2017-09-30T02:18:47.929Z,1016.04
2017-09-30T02:19:57.859Z,1016.02
2017-09-30T02:21:07.818Z,1016.06
2017-09-30T02:22:18.079Z,1016.07
2017-09-30T02:23:28.015Z,1016.06
2017-09-30T02:24:38.199Z,1016.02
2017-09-30T02:25:48.444Z,1016.07
2017-09-30T02:26:58.384Z,1016.02
2017-09-30T02:28:08.010Z,1016.04
2017-09-30T02:29:18.255Z,1016.03
2017-09-30T02:30:28.848Z,1016.06
2017-09-30T02:31:38.779Z,1016.05
2017-09-30T02:32:49.053Z,1016.04
2017-09-30T02:33:59.289Z,1016.04
2017-09-30T02:35:09.534Z,1016.05
2017-09-30T02:36:19.738Z,1016.02
2017-09-30T02:37:30.009Z,1016.02
2017-09-30T02:38:40.277Z,1016.02
2017-09-30T02:39:50.524Z,1015.98
2017-09-30T02:41:00.450Z,1016.01
2017-09-30T02:42:10.639Z,1016.02
2017-09-30T02:43:20.905Z,1016.01
2017-09-30T02:44:30.542Z,1016
2017-09-30T02:45:40.786Z,1016.02
2017-09-30T02:46:50.714Z,1016
2017-09-30T02:48:00.637Z,1016.03
2017-09-30T02:49:10.884Z,1016.02
2017-09-30T02:50:21.131Z,1015.99
2017-09-30T02:51:31.372Z,1015.99
2017-09-30T02:52:41.628Z,1015.95
2017-09-30T02:53:51.914Z,1015.95
2017-09-30T02:55:02.189Z,1016.01
2017-09-30T02:56:12.437Z,1016
2017-09-30T02:57:22.370Z,1016.01
2017-09-30T02:58:32.631Z,1015.97
2017-09-30T02:59:42.815Z,1015.99
2017-09-30T03:00:52.752Z,1015.99
2017-09-30T03:02:02.994Z,1016.01
2017-09-30T03:03:12.614Z,1015.99
2017-09-30T03:04:22.858Z,1015.95
2017-09-30T03:05:33.348Z,1015.94
2017-09-30T03:06:43.610Z,1015.96
2017-09-30T03:07:53.539Z,1015.93
2017-09-30T03:09:03.780Z,1015.93
2017-09-30T03:10:14.031Z,1015.91
2017-09-30T03:11:24.524Z,1015.88
2017-09-30T03:12:34.770Z,1015.84
2017-09-30T03:13:45.017Z,1015.81
2017-09-30T03:14:55.265Z,1015.84
2017-09-30T03:16:05.518Z,1015.87
2017-09-30T03:17:15.379Z,1015.85
2017-09-30T03:18:25.639Z,1015.85
2017-09-30T03:19:35.894Z,1015.83
2017-09-30T03:20:46.140Z,1015.83
2017-09-30T03:21:55.755Z,1015.8
2017-09-30T03:23:05.621Z,1015.79
2017-09-30T03:24:15.890Z,1015.79
2017-09-30T03:25:26.137Z,1015.83
2017-09-30T03:26:36.065Z,1015.79
2017-09-30T03:27:46.335Z,1015.82
2017-09-30T03:28:56.528Z,1015.77
2017-09-30T03:30:06.774Z,1015.81
2017-09-30T03:31:17.018Z,1015.76
2017-09-30T03:32:27.266Z,1015.79
2017-09-30T03:33:37.189Z,1015.78
2017-09-30T03:34:47.786Z,1015.74
2017-09-30T03:35:58.032Z,1015.76
2017-09-30T03:37:07.964Z,1015.74
2017-09-30T03:38:18.225Z,1015.74
2017-09-30T03:39:28.468Z,1015.76
2017-09-30T03:40:38.652Z,1015.74
2017-09-30T03:41:48.581Z,1015.7
2017-09-30T03:42:58.827Z,1015.71
2017-09-30T03:44:09.077Z,1015.7
2017-09-30T03:45:19.335Z,1015.71
2017-09-30T03:46:29.839Z,1015.71
2017-09-30T03:47:40.096Z,1015.72
2017-09-30T03:48:50.350Z,1015.69
2017-09-30T03:50:00.274Z,1015.72
2017-09-30T03:51:10.516Z,1015.74
2017-09-30T03:52:20.693Z,1015.73
2017-09-30T03:53:30.941Z,1015.72
2017-09-30T03:54:41.185Z,1015.72
2017-09-30T03:55:51.432Z,1015.72
2017-09-30T03:57:01.678Z,1015.67
2017-09-30T03:58:11.539Z,1015.65
2017-09-30T03:59:21.788Z,1015.65
2017-09-30T04:00:32.028Z,1015.67
2017-09-30T04:01:42.272Z,1015.65
2017-09-30T04:02:52.541Z,1015.64
2017-09-30T04:04:02.745Z,1015.61
2017-09-30T04:05:12.685Z,1015.65
2017-09-30T04:06:22.932Z,1015.63
2017-09-30T04:07:33.168Z,1015.62
2017-09-30T04:08:43.096Z,1015.61
2017-09-30T04:09:53.380Z,1015.6
2017-09-30T04:11:03.632Z,1015.59
2017-09-30T04:12:13.569Z,1015.56
2017-09-30T04:13:23.819Z,1015.58
2017-09-30T04:14:34.068Z,1015.53
2017-09-30T04:15:44.266Z,1015.54
2017-09-30T04:16:54.200Z,1015.55
2017-09-30T04:18:03.808Z,1015.53
2017-09-30T04:19:13.736Z,1015.53
2017-09-30T04:20:23.986Z,1015.55
2017-09-30T04:21:34.541Z,1015.51
2017-09-30T04:22:44.783Z,1015.49
2017-09-30T04:23:55.031Z,1015.5
2017-09-30T04:25:05.274Z,1015.51
2017-09-30T04:26:15.531Z,1015.47
2017-09-30T04:27:26.130Z,1015.52
2017-09-30T04:28:36.382Z,1015.54
2017-09-30T04:29:46.001Z,1015.52
2017-09-30T04:30:55.931Z,1015.52
2017-09-30T04:32:06.184Z,1015.53
2017-09-30T04:33:16.358Z,1015.49
2017-09-30T04:34:26.599Z,1015.47
2017-09-30T04:35:36.528Z,1015.46
2017-09-30T04:36:46.150Z,1015.5
2017-09-30T04:37:56.082Z,1015.5
2017-09-30T04:39:06.262Z,1015.49
2017-09-30T04:40:16.509Z,1015.51
2017-09-30T04:41:26.752Z,1015.53
2017-09-30T04:42:36.678Z,1015.53
2017-09-30T04:43:46.929Z,1015.58
2017-09-30T04:44:57.420Z,1015.54
2017-09-30T04:46:07.347Z,1015.56
2017-09-30T04:47:17.592Z,1015.54
2017-09-30T04:48:27.842Z,1015.56
2017-09-30T04:49:37.769Z,1015.5
2017-09-30T04:50:47.953Z,1015.51
2017-09-30T04:51:57.882Z,1015.54
2017-09-30T04:53:07.835Z,1015.53
2017-09-30T04:54:18.093Z,1015.51
2017-09-30T04:55:28.344Z,1015.49
2017-09-30T04:56:38.839Z,1015.5
2017-09-30T04:57:48.472Z,1015.47
2017-09-30T04:58:58.716Z,1015.47
2017-09-30T05:00:08.647Z,1015.42
2017-09-30T05:01:18.576Z,1015.44
2017-09-30T05:02:29.079Z,1015.41
2017-09-30T05:03:38.999Z,1015.44
2017-09-30T05:04:49.239Z,1015.39
2017-09-30T05:05:59.497Z,1015.39
2017-09-30T05:07:09.742Z,1015.42
2017-09-30T05:08:19.979Z,1015.38
2017-09-30T05:09:29.906Z,1015.37
2017-09-30T05:10:40.161Z,1015.41
2017-09-30T05:11:49.786Z,1015.42
2017-09-30T05:12:59.400Z,1015.34
2017-09-30T05:14:09.893Z,1015.38
2017-09-30T05:15:20.139Z,1015.35
2017-09-30T05:16:30.065Z,1015.36
2017-09-30T05:17:40.323Z,1015.33
2017-09-30T05:18:50.587Z,1015.33
2017-09-30T05:20:01.094Z,1015.34
2017-09-30T05:21:11.342Z,1015.34
2017-09-30T05:22:21.297Z,1015.35
2017-09-30T05:23:31.542Z,1015.33
2017-09-30T05:24:41.477Z,1015.3
2017-09-30T05:25:51.979Z,1015.27
2017-09-30T05:27:01.915Z,1015.31
2017-09-30T05:28:12.165Z,1015.35
2017-09-30T05:29:22.407Z,1015.29
2017-09-30T05:30:32.654Z,1015.37
2017-09-30T05:31:47.474Z,1015.38
2017-09-30T05:32:57.719Z,1015.4
2017-09-30T05:34:07.968Z,1015.42
2017-09-30T05:35:17.590Z,1015.48
2017-09-30T05:36:27.831Z,1015.44
2017-09-30T05:37:38.386Z,1015.45
2017-09-30T05:38:48.341Z,1015.45
2017-09-30T05:39:58.278Z,1015.41
2017-09-30T05:41:08.522Z,1015.41
2017-09-30T05:42:18.784Z,1015.4
2017-09-30T05:43:29.376Z,1015.43
2017-09-30T05:44:39.308Z,1015.41
2017-09-30T05:45:49.267Z,1015.41
2017-09-30T05:46:59.508Z,1015.45
2017-09-30T05:48:09.752Z,1015.41
2017-09-30T05:49:20.036Z,1015.41
2017-09-30T05:50:29.025Z,1015.45
2017-09-30T05:51:38.966Z,1015.45
2017-09-30T05:52:48.907Z,1015.42
2017-09-30T05:53:58.830Z,1015.43
2017-09-30T05:55:09.442Z,1015.44
2017-09-30T05:56:19.377Z,1015.42
2017-09-30T05:57:29.625Z,1015.48
2017-09-30T05:58:39.573Z,1015.41
2017-09-30T05:59:49.825Z,1015.42
2017-09-30T06:01:00.325Z,1015.42
2017-09-30T06:02:10.595Z,1015.41
2017-09-30T06:03:20.856Z,1015.44
2017-09-30T06:04:31.129Z,1015.42
2017-09-30T06:05:41.374Z,1015.43
2017-09-30T06:06:51.876Z,1015.41
2017-09-30T06:08:01.494Z,1015.42
2017-09-30T06:09:11.430Z,1015.41
2017-09-30T06:10:21.358Z,1015.4
2017-09-30T06:11:31.605Z,1015.37
2017-09-30T06:12:42.204Z,1015.42
2017-09-30T06:13:52.128Z,1015.4
2017-09-30T06:15:02.059Z,1015.38
2017-09-30T06:16:12.322Z,1015.4
2017-09-30T06:17:22.570Z,1015.36
2017-09-30T06:18:33.129Z,1015.35
2017-09-30T06:19:43.067Z,1015.35
2017-09-30T06:20:52.995Z,1015.32
2017-09-30T06:22:03.242Z,1015.3
2017-09-30T06:23:13.174Z,1015.29
2017-09-30T06:24:23.787Z,1015.31
2017-09-30T06:25:33.717Z,1015.28
2017-09-30T06:26:43.971Z,1015.24
2017-09-30T06:27:54.223Z,1015.23
2017-09-30T06:29:04.170Z,1015.26
2017-09-30T06:30:14.669Z,1015.26
2017-09-30T06:31:24.913Z,1015.26
2017-09-30T06:32:35.162Z,1015.28
2017-09-30T06:33:45.095Z,1015.24
2017-09-30T06:34:55.024Z,1015.25
2017-09-30T06:36:05.209Z,1015.24
2017-09-30T06:37:15.160Z,1015.25
2017-09-30T06:38:25.404Z,1015.23
2017-09-30T06:39:35.342Z,1015.24
2017-09-30T06:40:45.582Z,1015.22
2017-09-30T06:41:55.464Z,1015.21
2017-09-30T06:43:05.757Z,1015.24
2017-09-30T06:44:15.714Z,1015.23
2017-09-30T06:45:25.655Z,1015.27
2017-09-30T06:46:35.592Z,1015.21
2017-09-30T06:47:46.193Z,1015.24
2017-09-30T06:48:56.433Z,1015.23
2017-09-30T06:50:06.683Z,1015.22
2017-09-30T06:51:16.927Z,1015.2
2017-09-30T06:52:27.181Z,1015.23
2017-09-30T06:53:37.472Z,1015.23
2017-09-30T06:54:47.725Z,1015.25
2017-09-30T06:55:57.701Z,1015.27
2017-09-30T06:57:07.945Z,1015.22
2017-09-30T06:58:17.901Z,1015.21
2017-09-30T06:59:28.500Z,1015.27
2017-09-30T07:00:38.744Z,1015.24
2017-09-30T07:01:48.693Z,1015.22
2017-09-30T07:02:58.943Z,1015.19
2017-09-30T07:04:08.892Z,1015.21
2017-09-30T07:05:19.166Z,1015.26
2017-09-30T07:06:29.100Z,1015.22
2017-09-30T07:07:39.038Z,1015.2
2017-09-30T07:08:48.974Z,1015.21
2017-09-30T07:09:58.915Z,1015.16
2017-09-30T07:11:09.412Z,1015.12
2017-09-30T07:12:19.354Z,1015.16
2017-09-30T07:13:29.613Z,1015.22
2017-09-30T07:14:39.545Z,1015.08
2017-09-30T07:15:49.809Z,1015.14
2017-09-30T07:16:59.990Z,1015.15
2017-09-30T07:18:09.943Z,1015.14
2017-09-30T07:19:20.198Z,1015.15
2017-09-30T07:20:30.468Z,1015.15
2017-09-30T07:21:40.727Z,1015.17
2017-09-30T07:22:50.588Z,1015.09
2017-09-30T07:24:00.859Z,1015.16
2017-09-30T07:25:11.107Z,1015.14
2017-09-30T07:26:21.037Z,1015.15
2017-09-30T07:27:31.289Z,1015.16
2017-09-30T07:28:41.842Z,1015.15
2017-09-30T07:29:51.783Z,1015.15
2017-09-30T07:31:02.047Z,1015.15
2017-09-30T07:32:12.292Z,1015.18
2017-09-30T07:33:22.239Z,1015.16
2017-09-30T07:34:32.780Z,1015.14
2017-09-30T07:35:43.029Z,1015.17
2017-09-30T07:36:52.993Z,1015.2
2017-09-30T07:38:03.257Z,1015.19
2017-09-30T07:39:13.521Z,1015.2
2017-09-30T07:40:24.073Z,1015.17
2017-09-30T07:41:34.323Z,1015.13
2017-09-30T07:42:44.253Z,1015.14
2017-09-30T07:43:54.528Z,1015.13
2017-09-30T07:45:04.458Z,1015.11
2017-09-30T07:46:15.064Z,1015.15
2017-09-30T07:47:25.325Z,1015.14
2017-09-30T07:48:35.590Z,1015.12
2017-09-30T07:49:45.224Z,1015.12
2017-09-30T07:50:55.160Z,1015.11
2017-09-30T07:52:05.732Z,1015.11
2017-09-30T07:53:15.702Z,1015.07
2017-09-30T07:54:25.966Z,1015.07
2017-09-30T07:55:36.229Z,1015.04
2017-09-30T07:56:46.175Z,1015.08
2017-09-30T07:57:56.682Z,1015.13
2017-09-30T07:59:06.939Z,1015.2
2017-09-30T08:00:16.878Z,1015.23
2017-09-30T08:01:26.813Z,1015.19
2017-09-30T08:02:37.056Z,1015.14
2017-09-30T08:03:47.573Z,1015.21
2017-09-30T08:04:57.852Z,1015.2
2017-09-30T08:06:08.100Z,1015.2
2017-09-30T08:07:18.379Z,1015.22
2017-09-30T08:08:28.631Z,1015.21
2017-09-30T08:09:39.230Z,1015.23
2017-09-30T08:10:49.160Z,1015.18
2017-09-30T08:11:59.420Z,1015.19
2017-09-30T08:13:09.708Z,1015.16
2017-09-30T08:14:19.970Z,1015.16
2017-09-30T08:15:30.162Z,1015.2
2017-09-30T08:16:40.423Z,1015.16
2017-09-30T08:17:50.685Z,1015.16
2017-09-30T08:19:00.659Z,1015.23
2017-09-30T08:20:10.959Z,1015.16
2017-09-30T08:21:21.466Z,1015.2
2017-09-30T08:22:31.728Z,1015.19
2017-09-30T08:23:41.046Z,1015.13
2017-09-30T08:24:50.985Z,1015.13
2017-09-30T08:26:01.249Z,1015.1
2017-09-30T08:27:11.754Z,1015.12
2017-09-30T08:28:22.021Z,1015.1
2017-09-30T08:29:31.966Z,1015.11
2017-09-30T08:30:42.238Z,1015.04
2017-09-30T08:31:52.177Z,1015.06
2017-09-30T08:33:03.010Z,1015.05
2017-09-30T08:34:13.279Z,1015.06
2017-09-30T08:35:23.531Z,1015.04
2017-09-30T08:36:33.153Z,1015.03
2017-09-30T08:37:43.413Z,1015.03
2017-09-30T08:38:53.915Z,1015.04
2017-09-30T08:40:03.241Z,1015.05
2017-09-30T08:41:13.168Z,1015.07
2017-09-30T08:42:23.121Z,1015.03
2017-09-30T08:43:32.757Z,1015.05
2017-09-30T08:44:43.274Z,1015.06
2017-09-30T08:45:53.215Z,1015.05
2017-09-30T08:47:03.492Z,1015.03
2017-09-30T08:48:13.750Z,1015
2017-09-30T08:49:23.702Z,1015.01
2017-09-30T08:50:34.267Z,1015.04
2017-09-30T08:51:44.533Z,1015.02
2017-09-30T08:52:54.795Z,1015.03
2017-09-30T08:54:05.062Z,1015.03
2017-09-30T08:55:15.012Z,1014.97
2017-09-30T08:56:25.529Z,1015
2017-09-30T08:57:35.787Z,1014.99
2017-09-30T08:58:46.051Z,1014.96
2017-09-30T08:59:56.315Z,1014.93
2017-09-30T09:01:06.575Z,1014.93
2017-09-30T09:02:17.091Z,1014.88
2017-09-30T09:03:27.353Z,1014.84
2017-09-30T09:04:37.602Z,1014.88
2017-09-30T09:05:47.888Z,1014.86
2017-09-30T09:06:57.822Z,1014.85
2017-09-30T09:08:08.022Z,1014.82
2017-09-30T09:09:18.290Z,1014.86
2017-09-30T09:10:28.239Z,1014.83
2017-09-30T09:11:38.187Z,1014.8
2017-09-30T09:12:48.443Z,1014.75
2017-09-30T09:13:58.450Z,1014.76
2017-09-30T09:15:08.381Z,1014.76
2017-09-30T09:16:18.337Z,1014.74
2017-09-30T09:17:28.281Z,1014.72
2017-09-30T09:18:38.245Z,1014.75
2017-09-30T09:19:48.745Z,1014.7
2017-09-30T09:20:58.080Z,1014.69
2017-09-30T09:22:08.361Z,1014.66
2017-09-30T09:23:18.306Z,1014.66
2017-09-30T09:24:28.246Z,1014.66
2017-09-30T09:25:38.490Z,1014.63
2017-09-30T09:26:48.772Z,1014.6
2017-09-30T09:27:59.035Z,1014.6
2017-09-30T09:29:09.296Z,1014.58
2017-09-30T09:30:19.243Z,1014.56
2017-09-30T09:31:29.847Z,1014.59
2017-09-30T09:32:39.806Z,1014.56
2017-09-30T09:33:50.065Z,1014.53
2017-09-30T09:35:00.331Z,1014.55
2017-09-30T09:36:10.595Z,1014.49
2017-09-30T09:37:21.217Z,1014.5
2017-09-30T09:38:31.469Z,1014.49
2017-09-30T09:39:41.421Z,1014.51
2017-09-30T09:40:51.054Z,1014.47
2017-09-30T09:42:01.007Z,1014.46
2017-09-30T09:43:11.522Z,1014.47
2017-09-30T09:44:21.784Z,1014.45
2017-09-30T09:45:31.735Z,1014.42
2017-09-30T09:46:42.011Z,1014.45
2017-09-30T09:47:52.271Z,1014.42
2017-09-30T09:49:02.463Z,1014.43
2017-09-30T09:50:12.402Z,1014.38
2017-09-30T09:51:22.359Z,1014.43
2017-09-30T09:52:32.312Z,1014.42
2017-09-30T09:53:42.572Z,1014.37
2017-09-30T09:54:52.876Z,1014.34
2017-09-30T09:56:02.840Z,1014.34
2017-09-30T09:57:13.115Z,1014.34
2017-09-30T09:58:23.064Z,1014.32
2017-09-30T09:59:33.340Z,1014.3
2017-09-30T10:00:43.551Z,1014.28
2017-09-30T10:01:53.810Z,1014.31
2017-09-30T10:03:03.756Z,1014.27
2017-09-30T10:04:13.694Z,1014.27
2017-09-30T10:05:23.963Z,1014.27
2017-09-30T10:06:34.202Z,1014.23
2017-09-30T10:07:43.840Z,1014.18
2017-09-30T10:08:54.101Z,1014.19
2017-09-30T10:10:04.364Z,1014.18
2017-09-30T10:11:14.637Z,1014.14
2017-09-30T10:12:24.886Z,1014.12
2017-09-30T10:13:35.169Z,1014.15
2017-09-30T10:14:45.110Z,1014.13
2017-09-30T10:15:55.361Z,1014.05
2017-09-30T10:17:05.645Z,1014.1
2017-09-30T10:18:16.219Z,1014.08
2017-09-30T10:19:26.479Z,1014.08
2017-09-30T10:20:36.419Z,1014.08
2017-09-30T10:21:46.371Z,1014.07
2017-09-30T10:22:56.637Z,1014.01
2017-09-30T10:24:06.833Z,1014.05
2017-09-30T10:25:17.093Z,1014.07
2017-09-30T10:26:27.366Z,1014.03
2017-09-30T10:27:37.320Z,1014.03
2017-09-30T10:28:47.589Z,1014.04
2017-09-30T10:29:57.787Z,1014.05
2017-09-30T10:31:07.739Z,1013.99
2017-09-30T10:32:18.023Z,1014
2017-09-30T10:33:28.318Z,1014.02
2017-09-30T10:34:38.578Z,1014.05
2017-09-30T10:35:49.111Z,1013.99
2017-09-30T10:36:59.055Z,1013.98
2017-09-30T10:38:09.336Z,1013.97
2017-09-30T10:39:19.274Z,1013.98
2017-09-30T10:40:29.545Z,1013.95
2017-09-30T10:41:40.114Z,1013.99
2017-09-30T10:42:50.055Z,1014
2017-09-30T10:44:00.336Z,1013.9
2017-09-30T10:45:10.300Z,1013.98
2017-09-30T10:46:20.564Z,1013.93
2017-09-30T10:47:31.121Z,1013.96
2017-09-30T10:48:41.070Z,1013.89
2017-09-30T10:49:51.334Z,1013.93
2017-09-30T10:51:01.586Z,1013.92
2017-09-30T10:52:11.887Z,1013.94
2017-09-30T10:53:22.502Z,1013.9
2017-09-30T10:54:32.452Z,1013.91
2017-09-30T10:55:42.711Z,1013.91
2017-09-30T10:56:52.968Z,1013.88
2017-09-30T10:58:02.939Z,1013.88
2017-09-30T10:59:13.570Z,1013.84
2017-09-30T11:00:23.513Z,1013.85
2017-09-30T11:01:33.470Z,1013.85
2017-09-30T11:02:43.129Z,1013.81
2017-09-30T11:03:53.100Z,1013.82
2017-09-30T11:05:03.633Z,1013.83
2017-09-30T11:06:13.898Z,1013.81
2017-09-30T11:07:24.165Z,1013.81
2017-09-30T11:08:34.428Z,1013.81
2017-09-30T11:09:44.691Z,1013.81
2017-09-30T11:10:54.566Z,1013.74
2017-09-30T11:12:04.858Z,1013.73
2017-09-30T11:13:14.818Z,1013.75
2017-09-30T11:14:24.769Z,1013.71
2017-09-30T11:15:35.032Z,1013.7
2017-09-30T11:16:45.334Z,1013.73
2017-09-30T11:17:55.596Z,1013.67
2017-09-30T11:19:05.544Z,1013.64
2017-09-30T11:20:15.801Z,1013.61
2017-09-30T11:21:25.741Z,1013.59
2017-09-30T11:22:35.617Z,1013.55
2017-09-30T11:23:45.898Z,1013.55
2017-09-30T11:24:56.163Z,1013.53
2017-09-30T11:26:06.113Z,1013.51
2017-09-30T11:27:16.387Z,1013.51
2017-09-30T11:28:26.898Z,1013.49
2017-09-30T11:29:36.856Z,1013.52
2017-09-30T11:30:46.803Z,1013.52
2017-09-30T11:31:57.074Z,1013.51
2017-09-30T11:33:07.346Z,1013.55
2017-09-30T11:34:17.866Z,1013.55
2017-09-30T11:35:28.142Z,1013.53
2017-09-30T11:36:38.411Z,1013.49
2017-09-30T11:37:48.350Z,1013.54
2017-09-30T11:38:58.315Z,1013.51
2017-09-30T11:40:08.892Z,1013.41
2017-09-30T11:41:19.168Z,1013.42
2017-09-30T11:42:29.455Z,1013.47
2017-09-30T11:43:39.731Z,1013.41
2017-09-30T11:44:49.677Z,1013.43
2017-09-30T11:45:59.917Z,1013.42
2017-09-30T11:47:09.552Z,1013.37
2017-09-30T11:48:19.822Z,1013.38
2017-09-30T11:49:29.774Z,1013.39
2017-09-30T11:50:39.735Z,1013.36
2017-09-30T11:51:49.926Z,1013.39
2017-09-30T11:52:59.883Z,1013.36
2017-09-30T11:54:10.146Z,1013.32
2017-09-30T11:55:20.415Z,1013.31
2017-09-30T11:56:30.051Z,1013.31
2017-09-30T11:57:40.587Z,1013.34
2017-09-30T11:58:50.525Z,1013.27
2017-09-30T12:00:00.794Z,1013.29
2017-09-30T12:01:10.746Z,1013.26
2017-09-30T12:02:20.386Z,1013.25
2017-09-30T12:03:30.962Z,1013.24
2017-09-30T12:04:40.907Z,1013.19
2017-09-30T12:05:51.177Z,1013.22
2017-09-30T12:07:01.130Z,1013.2
2017-09-30T12:08:11.079Z,1013.19
2017-09-30T12:09:21.686Z,1013.2
2017-09-30T12:10:31.967Z,1013.19
2017-09-30T12:11:41.916Z,1013.13
2017-09-30T12:12:52.201Z,1013.14
2017-09-30T12:14:02.151Z,1013.12
2017-09-30T12:15:12.393Z,1013.16
2017-09-30T12:16:22.652Z,1013.18
2017-09-30T12:17:32.617Z,1013.13
2017-09-30T12:18:42.900Z,1013.09
2017-09-30T12:19:53.155Z,1013.12
2017-09-30T12:21:03.676Z,1013.12
2017-09-30T12:22:13.936Z,1013.1
2017-09-30T12:23:24.209Z,1013.05
2017-09-30T12:24:33.848Z,1013.07
2017-09-30T12:25:44.114Z,1013.1
2017-09-30T12:26:54.355Z,1013.05
2017-09-30T12:28:04.618Z,1013.12
2017-09-30T12:29:14.884Z,1013.06
2017-09-30T12:30:25.168Z,1013.04
2017-09-30T12:31:35.440Z,1013.03
2017-09-30T12:32:45.947Z,1012.93
2017-09-30T12:33:55.893Z,1012.96
2017-09-30T12:35:06.171Z,1012.97
2017-09-30T12:36:16.428Z,1012.97
2017-09-30T12:37:26.382Z,1012.95
2017-09-30T12:38:36.899Z,1012.92
2017-09-30T12:39:46.870Z,1012.97
2017-09-30T12:40:57.140Z,1012.95
2017-09-30T12:42:07.414Z,1012.92
2017-09-30T12:43:17.357Z,1012.9
2017-09-30T12:44:27.867Z,1012.89
2017-09-30T12:45:37.826Z,1012.87
2017-09-30T12:46:47.771Z,1012.93
2017-09-30T12:47:58.030Z,1012.85
2017-09-30T12:49:07.972Z,1012.89
2017-09-30T12:50:17.857Z,1012.86
2017-09-30T12:51:28.118Z,1012.88
2017-09-30T12:52:38.387Z,1012.82
2017-09-30T12:53:48.359Z,1012.8
2017-09-30T12:54:58.306Z,1012.85
2017-09-30T12:56:08.806Z,1012.86
2017-09-30T12:57:18.756Z,1012.81
2017-09-30T12:58:29.010Z,1012.86
2017-09-30T12:59:38.959Z,1012.82
2017-09-30T13:00:49.228Z,1012.84
2017-09-30T13:01:59.436Z,1012.86
2017-09-30T13:03:09.704Z,1012.85
2017-09-30T13:04:19.679Z,1012.77
2017-09-30T13:05:29.940Z,1012.8
2017-09-30T13:06:40.194Z,1012.8
2017-09-30T13:07:50.699Z,1012.76
2017-09-30T13:09:00.334Z,1012.74
2017-09-30T13:10:10.613Z,1012.72
2017-09-30T13:11:20.871Z,1012.65
2017-09-30T13:12:30.821Z,1012.7
2017-09-30T13:13:41.329Z,1012.75
2017-09-30T13:14:51.590Z,1012.73
2017-09-30T13:16:01.222Z,1012.69
2017-09-30T13:17:11.493Z,1012.71
2017-09-30T13:18:21.447Z,1012.67
2017-09-30T13:19:31.954Z,1012.64
2017-09-30T13:20:41.902Z,1012.64
2017-09-30T13:21:51.851Z,1012.72
2017-09-30T13:23:01.800Z,1012.64
2017-09-30T13:24:11.437Z,1012.67
2017-09-30T13:25:21.965Z,1012.62
2017-09-30T13:26:31.939Z,1012.62
2017-09-30T13:27:42.207Z,1012.69
2017-09-30T13:28:52.147Z,1012.69
2017-09-30T13:30:02.111Z,1012.67
2017-09-30T13:31:12.624Z,1012.68
2017-09-30T13:32:22.900Z,1012.66
2017-09-30T13:33:33.170Z,1012.58
2017-09-30T13:34:42.812Z,1012.61
2017-09-30T13:35:52.756Z,1012.66
2017-09-30T13:37:03.268Z,1012.58
2017-09-30T13:38:13.221Z,1012.58
2017-09-30T13:39:23.490Z,1012.68
2017-09-30T13:40:33.770Z,1012.61
2017-09-30T13:41:44.036Z,1012.62
2017-09-30T13:42:54.239Z,1012.62
2017-09-30T13:44:04.189Z,1012.65
2017-09-30T13:45:14.468Z,1012.61
2017-09-30T13:46:24.721Z,1012.64
2017-09-30T13:47:34.980Z,1012.59
2017-09-30T13:48:45.488Z,1012.67
2017-09-30T13:49:55.444Z,1012.63
2017-09-30T13:51:05.385Z,1012.64
2017-09-30T13:52:15.638Z,1012.62
2017-09-30T13:53:25.894Z,1012.58
2017-09-30T13:54:36.412Z,1012.59
2017-09-30T13:55:46.359Z,1012.63
2017-09-30T13:56:56.613Z,1012.62
2017-09-30T13:58:06.567Z,1012.56
2017-09-30T13:59:16.508Z,1012.61
2017-09-30T14:00:27.029Z,1012.57
2017-09-30T14:01:37.305Z,1012.65
2017-09-30T14:02:47.567Z,1012.58
2017-09-30T14:03:57.516Z,1012.6
2017-09-30T14:05:07.775Z,1012.65
2017-09-30T14:06:18.293Z,1012.57
2017-09-30T14:07:28.242Z,1012.65
2017-09-30T14:08:38.507Z,1012.59
2017-09-30T14:09:48.770Z,1012.57
2017-09-30T14:10:59.026Z,1012.49
2017-09-30T14:12:09.262Z,1012.53